createdAt,value
2022-12-23T00:00:40.849Z,11.93
2022-12-23T00:03:07.967Z,13.60
2022-12-23T00:05:38.959Z,10.45
2022-12-23T00:08:06.865Z,10.55
2022-12-23T00:10:35.175Z,10.80
2022-12-23T00:13:20.444Z,10.77
2022-12-23T00:15:47.182Z,9.20
2022-12-23T00:18:14.011Z,8.95
2022-12-23T00:20:40.743Z,9.60
2022-12-23T00:23:07.579Z,9.50
2022-12-23T00:25:41.960Z,8.45
2022-12-23T00:28:14.585Z,8.07
2022-12-23T00:30:55.935Z,8.27
2022-12-23T00:33:24.848Z,8.80
2022-12-23T00:35:52.188Z,10.40
2022-12-23T00:38:43.039Z,8.30
2022-12-23T00:41:33.475Z,9.60
2022-12-23T00:44:00.362Z,9.52
2022-12-23T00:46:27.290Z,11.07
2022-12-23T00:49:12.670Z,10.88
2022-12-23T00:51:39.571Z,10.43
2022-12-23T00:54:06.639Z,12.20
2022-12-23T00:56:33.461Z,14.00
2022-12-23T00:59:00.415Z,13.15
2022-12-23T01:01:45.923Z,15.05
2022-12-23T01:04:32.941Z,13.60
2022-12-23T01:06:59.750Z,12.35
2022-12-23T01:09:26.878Z,11.48
2022-12-23T01:11:53.870Z,11.68
2022-12-23T01:14:21.114Z,11.00
2022-12-23T01:16:48.190Z,10.20
2022-12-23T01:19:15.238Z,8.55
2022-12-23T01:21:42.043Z,9.23
2022-12-23T01:24:08.891Z,9.90
2022-12-23T01:26:35.792Z,10.43
2022-12-23T01:29:02.989Z,10.90
2022-12-23T01:31:30.212Z,9.77
2022-12-23T01:33:57.782Z,11.77
2022-12-23T01:36:24.895Z,11.18
2022-12-23T01:38:52.021Z,10.10
2022-12-23T01:41:44.500Z,10.82
2022-12-23T01:44:47.554Z,9.02
2022-12-23T01:47:31.507Z,10.15
2022-12-23T01:50:13.616Z,10.57
2022-12-23T01:53:17.987Z,10.55
2022-12-23T01:56:04.278Z,8.88
2022-12-23T01:58:38.777Z,10.35
2022-12-23T02:01:25.347Z,9.38
2022-12-23T02:03:55.530Z,9.68
2022-12-23T02:06:47.073Z,11.50
2022-12-23T02:09:27.717Z,10.60
2022-12-23T02:12:21.623Z,10.32
2022-12-23T02:15:36.222Z,11.95
2022-12-23T02:18:35.257Z,10.63
2022-12-23T02:21:32.166Z,11.02
2022-12-23T02:24:29.423Z,9.90
2022-12-23T02:27:08.630Z,8.55
2022-12-23T02:29:57.425Z,9.57
2022-12-23T02:32:31.850Z,11.63
2022-12-23T02:35:16.820Z,9.70
2022-12-23T02:38:00.580Z,10.75
2022-12-23T02:40:30.007Z,9.35
2022-12-23T02:43:09.029Z,10.35
2022-12-23T02:45:40.912Z,8.68
2022-12-23T02:48:20.014Z,11.23
2022-12-23T02:50:47.326Z,8.50
2022-12-23T02:53:36.144Z,9.27
2022-12-23T02:56:04.303Z,8.10
2022-12-23T02:58:38.828Z,8.63
2022-12-23T03:01:07.240Z,9.38
2022-12-23T03:03:35.505Z,9.48
2022-12-23T03:06:02.753Z,9.68
2022-12-23T03:08:39.908Z,9.82
2022-12-23T03:11:14.861Z,8.77
2022-12-23T03:13:59.914Z,9.30
2022-12-23T03:16:53.249Z,9.50
2022-12-23T03:19:33.600Z,14.18
2022-12-23T03:22:08.515Z,18.25
2022-12-23T03:24:41.196Z,25.40
2022-12-23T03:27:18.195Z,29.65
2022-12-23T03:30:01.463Z,31.60
2022-12-23T03:32:29.971Z,33.85
2022-12-23T03:34:59.372Z,38.08
2022-12-23T03:37:27.624Z,38.20
2022-12-23T03:40:23.855Z,38.08
2022-12-23T03:42:57.158Z,36.17
2022-12-23T03:45:39.429Z,35.97
2022-12-23T03:48:16.216Z,35.55
2022-12-23T03:50:44.155Z,38.65
2022-12-23T03:53:15.469Z,37.90
2022-12-23T03:55:50.647Z,39.90
2022-12-23T03:58:27.342Z,38.90
2022-12-23T04:01:23.250Z,39.17
2022-12-23T04:03:56.307Z,36.90
2022-12-23T04:06:24.260Z,41.08
2022-12-23T04:08:51.438Z,38.75
2022-12-23T04:11:18.325Z,38.03
2022-12-23T04:13:47.320Z,40.55
2022-12-23T04:18:40.795Z,37.97
2022-12-23T04:21:07.598Z,33.22
2022-12-23T04:23:34.357Z,35.95
2022-12-23T04:26:01.136Z,34.80
2022-12-23T04:28:27.927Z,36.42
2022-12-23T04:30:54.698Z,34.80
2022-12-23T04:33:21.718Z,32.40
2022-12-23T04:35:48.468Z,35.17
2022-12-23T04:38:16.496Z,29.58
2022-12-23T04:40:47.022Z,31.10
2022-12-23T04:43:13.898Z,28.40
2022-12-23T04:45:40.809Z,27.85
2022-12-23T04:48:07.520Z,25.15
2022-12-23T04:50:34.323Z,24.63
2022-12-23T04:53:01.079Z,26.70
2022-12-23T04:55:27.832Z,26.25
2022-12-23T04:57:54.567Z,26.52
2022-12-23T05:00:22.156Z,24.88
2022-12-23T05:02:49.113Z,25.17
2022-12-23T05:05:16.077Z,22.20
2022-12-23T05:07:42.884Z,19.65
2022-12-23T05:10:10.316Z,19.83
2022-12-23T05:12:37.074Z,19.80
2022-12-23T05:15:04.091Z,18.23
2022-12-23T05:17:30.872Z,16.85
2022-12-23T05:19:57.667Z,17.10
2022-12-23T05:22:24.478Z,15.43
2022-12-23T05:24:51.266Z,16.95
2022-12-23T05:27:18.330Z,17.70
2022-12-23T05:29:45.141Z,17.90
2022-12-23T05:32:11.983Z,16.42
2022-12-23T05:34:38.867Z,14.77
2022-12-23T05:37:05.644Z,15.25
2022-12-23T05:39:32.410Z,16.02
2022-12-23T05:41:59.187Z,17.10
2022-12-23T05:44:25.920Z,15.88
2022-12-23T05:46:52.779Z,17.00
2022-12-23T05:49:19.613Z,16.95
2022-12-23T05:51:46.401Z,19.15
2022-12-23T05:54:13.238Z,18.05
2022-12-23T05:56:39.975Z,17.10
2022-12-23T05:59:07.803Z,12.48
2022-12-23T06:01:35.387Z,12.18
2022-12-23T06:04:02.343Z,12.68
2022-12-23T06:06:29.194Z,13.85
2022-12-23T06:08:59.788Z,11.60
2022-12-23T06:11:27.265Z,13.13
2022-12-23T06:13:54.020Z,13.05
2022-12-23T06:16:20.969Z,12.95
2022-12-23T06:18:47.905Z,13.40
2022-12-23T06:21:14.684Z,12.75
2022-12-23T06:23:41.449Z,13.48
2022-12-23T06:26:08.585Z,12.98
2022-12-23T06:28:35.379Z,12.85
2022-12-23T06:31:02.198Z,13.25
2022-12-23T06:33:29.005Z,12.10
2022-12-23T06:35:55.786Z,13.80
2022-12-23T06:38:22.733Z,13.13
2022-12-23T06:40:49.617Z,15.18
2022-12-23T06:43:16.509Z,13.95
2022-12-23T06:45:47.522Z,12.55
2022-12-23T06:48:14.543Z,13.10
2022-12-23T06:50:41.256Z,13.18
2022-12-23T06:53:08.136Z,16.33
2022-12-23T06:55:35.112Z,14.18
2022-12-23T06:58:01.888Z,17.90
2022-12-23T07:00:28.658Z,21.42
2022-12-23T07:02:55.624Z,23.85
2022-12-23T07:05:22.683Z,23.77
2022-12-23T07:07:49.439Z,23.35
2022-12-23T07:10:16.299Z,26.08
2022-12-23T07:12:47.538Z,30.27
2022-12-23T07:15:17.464Z,31.27
2022-12-23T07:17:44.225Z,33.25
2022-12-23T07:20:13.552Z,25.80
2022-12-23T07:22:40.508Z,24.05
2022-12-23T07:25:08.067Z,23.80
2022-12-23T07:27:34.839Z,26.58
2022-12-23T07:30:01.966Z,26.20
2022-12-23T07:32:28.750Z,32.10
2022-12-23T07:34:56.136Z,33.97
2022-12-23T07:37:22.986Z,31.70
2022-12-23T07:39:49.746Z,30.05
2022-12-23T07:42:43.354Z,29.90
2022-12-23T07:45:04.585Z,28.10
2022-12-23T07:47:31.501Z,28.55
2022-12-23T07:49:58.239Z,28.60
2022-12-23T07:52:24.996Z,25.65
2022-12-23T07:54:51.759Z,26.05
2022-12-23T07:57:18.552Z,27.95
2022-12-23T07:59:45.291Z,26.88
2022-12-23T08:02:12.237Z,27.88
2022-12-23T08:04:45.643Z,26.77
2022-12-23T08:07:12.969Z,27.00
2022-12-23T08:09:39.769Z,26.88
2022-12-23T08:12:06.876Z,26.50
2022-12-23T08:14:33.633Z,24.50
2022-12-23T08:17:00.488Z,26.02
2022-12-23T08:19:28.194Z,25.25
2022-12-23T08:21:55.016Z,26.05
2022-12-23T08:24:21.819Z,25.00
2022-12-23T08:26:48.647Z,24.05
2022-12-23T08:29:15.564Z,23.45
2022-12-23T08:31:42.432Z,21.35
2022-12-23T08:34:09.194Z,19.20
2022-12-23T08:36:36.556Z,20.42
2022-12-23T08:39:06.592Z,21.48
2022-12-23T08:41:37.224Z,21.70
2022-12-23T08:44:04.103Z,23.90
2022-12-23T08:46:31.047Z,21.42
2022-12-23T08:48:57.975Z,20.85
2022-12-23T08:51:25.969Z,21.35
2022-12-23T08:53:59.785Z,21.77
2022-12-23T08:58:59.265Z,18.52
2022-12-23T09:01:29.202Z,19.30
2022-12-23T09:03:56.743Z,19.80
2022-12-23T09:06:29.579Z,17.65
2022-12-23T09:08:56.708Z,17.98
2022-12-23T09:11:25.732Z,15.27
2022-12-23T09:13:52.760Z,15.48
2022-12-23T09:16:20.124Z,16.13
2022-12-23T09:18:47.099Z,17.55
2022-12-23T09:21:16.261Z,17.00
2022-12-23T09:23:43.196Z,17.58
2022-12-23T09:26:11.084Z,18.38
2022-12-23T09:28:39.428Z,18.50
2022-12-23T09:31:08.727Z,18.92
2022-12-23T09:33:36.335Z,21.50
2022-12-23T09:36:03.691Z,19.88
2022-12-23T09:38:30.900Z,24.13
2022-12-23T09:41:11.492Z,26.10
2022-12-23T09:43:45.282Z,26.73
2022-12-23T09:46:15.053Z,28.65
2022-12-23T09:48:48.432Z,28.58
2022-12-23T09:51:17.632Z,25.17
2022-12-23T09:54:05.705Z,26.63
2022-12-23T09:56:54.188Z,28.27
2022-12-23T09:59:29.868Z,30.48
2022-12-23T10:01:56.698Z,34.08
2022-12-23T10:05:03.068Z,31.98
2022-12-23T10:07:42.141Z,32.50
2022-12-23T10:10:20.518Z,26.67
2022-12-23T10:12:50.141Z,27.15
2022-12-23T10:15:22.129Z,34.45
2022-12-23T10:17:51.449Z,32.97
2022-12-23T10:20:29.306Z,34.05
2022-12-23T10:22:57.304Z,37.05
2022-12-23T10:25:32.665Z,36.33
2022-12-23T10:27:59.549Z,37.70
2022-12-23T10:30:53.912Z,38.67
2022-12-23T10:33:24.002Z,37.92
2022-12-23T10:57:23.635Z,32.75
2022-12-23T10:59:50.499Z,33.03
2022-12-23T11:02:57.488Z,31.50
2022-12-23T11:10:16.085Z,35.35
2022-12-23T11:13:58.877Z,30.20
2022-12-23T12:04:04.744Z,38.38
2022-12-23T12:06:51.268Z,39.10
2022-12-23T12:09:49.287Z,40.45
2022-12-23T12:17:38.233Z,37.35
2022-12-23T12:24:14.597Z,38.90
2022-12-23T12:26:42.128Z,35.20
2022-12-23T12:43:35.433Z,31.30
2022-12-23T12:46:20.214Z,28.58
2022-12-23T13:03:03.911Z,29.92
2022-12-23T13:05:39.574Z,27.10
2022-12-23T13:17:02.982Z,30.05
2022-12-23T13:37:49.863Z,27.40
2022-12-23T13:40:42.185Z,27.08
2022-12-23T13:43:43.572Z,28.48
2022-12-23T13:50:11.872Z,27.63
2022-12-23T14:06:38.017Z,23.75
2022-12-23T14:09:30.687Z,24.45
2022-12-23T14:12:42.763Z,23.15
2022-12-23T14:15:18.602Z,22.02
2022-12-23T14:31:41.642Z,12.65
2022-12-23T14:34:20.441Z,7.60
2022-12-23T14:37:40.456Z,5.03
2022-12-23T14:49:29.694Z,3.10
2022-12-23T14:51:50.861Z,3.53
2022-12-23T14:54:39.544Z,4.25
2022-12-23T14:57:16.539Z,3.33
2022-12-23T14:59:57.025Z,3.83
2022-12-23T15:02:42.754Z,3.95
2022-12-23T15:05:28.196Z,3.55
2022-12-23T15:07:56.977Z,3.80
2022-12-23T15:10:26.113Z,3.63
2022-12-23T15:12:56.174Z,4.72
2022-12-23T15:15:25.377Z,4.78
2022-12-23T15:18:13.147Z,5.82
2022-12-23T15:21:04.011Z,6.28
2022-12-23T15:23:50.627Z,4.88
2022-12-23T15:26:17.825Z,4.30
2022-12-23T15:29:07.310Z,4.78
2022-12-23T15:31:42.486Z,5.25
2022-12-23T15:34:17.072Z,5.43
2022-12-23T15:37:03.791Z,4.85
2022-12-23T15:39:54.120Z,5.90
2022-12-23T15:42:48.092Z,6.40
2022-12-23T15:45:36.513Z,6.10
2022-12-23T15:48:05.371Z,5.65
2022-12-23T15:50:40.491Z,5.18
2022-12-23T15:53:09.711Z,5.07
2022-12-23T15:55:39.293Z,7.03
2022-12-23T15:58:06.145Z,5.82
2022-12-23T16:00:40.243Z,6.05
2022-12-23T16:03:19.340Z,6.57
2022-12-23T16:05:46.191Z,5.47
2022-12-23T16:08:24.627Z,4.47
2022-12-23T16:11:14.889Z,6.03
2022-12-23T16:13:58.797Z,4.82
2022-12-23T16:16:45.031Z,5.70
2022-12-23T16:19:49.804Z,4.55
2022-12-23T16:22:44.831Z,5.82
2022-12-23T16:25:14.887Z,4.85
2022-12-23T16:27:48.248Z,5.38
2022-12-23T16:30:24.258Z,4.75
2022-12-23T16:32:56.430Z,4.90
2022-12-23T16:35:43.702Z,5.35
2022-12-23T16:38:30.184Z,4.13
2022-12-23T16:41:15.300Z,4.00
2022-12-23T16:43:47.693Z,3.88
2022-12-23T16:46:20.148Z,3.67
2022-12-23T16:48:55.551Z,3.92
2022-12-23T16:51:23.632Z,5.00
2022-12-23T16:53:52.550Z,7.72
2022-12-23T16:56:21.206Z,4.40
2022-12-23T17:01:20.934Z,4.78
2022-12-23T17:03:47.886Z,2.80
2022-12-23T17:06:16.612Z,3.25
2022-12-23T17:08:43.971Z,2.28
2022-12-23T17:11:19.859Z,2.45
2022-12-23T17:13:47.074Z,1.67
2022-12-23T17:16:15.687Z,3.00
2022-12-23T17:21:36.844Z,4.28
2022-12-23T17:24:22.520Z,5.53
2022-12-23T17:26:49.749Z,5.35
2022-12-23T17:29:17.022Z,6.35
2022-12-23T17:31:45.008Z,5.63
2022-12-23T17:34:16.590Z,7.03
2022-12-23T17:36:49.602Z,7.60
2022-12-23T17:39:17.413Z,5.60
2022-12-23T17:41:44.261Z,8.45
2022-12-23T17:44:13.810Z,6.28
2022-12-23T17:46:40.743Z,7.90
2022-12-23T17:49:08.742Z,6.90
2022-12-23T17:51:35.575Z,7.68
2022-12-23T17:54:04.612Z,7.82
2022-12-23T17:56:31.545Z,8.55
2022-12-23T17:58:58.657Z,11.13
2022-12-23T18:01:30.475Z,9.77
2022-12-23T18:03:58.944Z,8.75
2022-12-23T18:06:27.691Z,13.45
2022-12-23T18:11:21.222Z,9.50
2022-12-23T18:13:49.528Z,9.85
2022-12-23T18:16:16.359Z,11.93
2022-12-23T18:18:46.483Z,11.35
2022-12-23T18:21:21.196Z,15.18
2022-12-23T18:23:48.074Z,11.88
2022-12-23T18:26:15.259Z,11.30
2022-12-23T18:28:43.043Z,14.85
2022-12-23T18:31:18.543Z,15.88
2022-12-23T18:33:45.990Z,13.48
2022-12-23T18:36:25.764Z,12.68
2022-12-23T18:38:53.446Z,10.80
2022-12-23T18:41:21.577Z,11.75
2022-12-23T18:43:48.781Z,11.60
2022-12-23T18:46:15.678Z,12.48
2022-12-23T18:48:42.735Z,13.88
2022-12-23T18:51:16.486Z,15.10
2022-12-23T18:53:43.885Z,15.52
2022-12-23T18:56:15.179Z,13.38
2022-12-23T18:58:42.344Z,13.52
2022-12-23T19:01:14.006Z,13.98
2022-12-23T19:03:41.490Z,13.57
2022-12-23T19:06:10.012Z,15.15
2022-12-23T19:08:37.461Z,15.02
2022-12-23T19:11:16.247Z,15.75
2022-12-23T19:13:43.084Z,15.93
2022-12-23T19:16:17.972Z,15.20
2022-12-23T19:18:45.552Z,16.88
2022-12-23T19:21:30.899Z,15.68
2022-12-23T19:23:58.617Z,24.95
2022-12-23T19:26:25.534Z,17.10
2022-12-23T19:28:52.433Z,17.95
2022-12-23T19:31:19.571Z,16.10
2022-12-23T19:33:47.157Z,16.15
2022-12-23T19:36:16.924Z,14.45
2022-12-23T19:38:43.812Z,15.95
2022-12-23T19:41:10.804Z,14.30
2022-12-23T19:43:38.701Z,13.23
2022-12-23T19:46:11.010Z,11.05
2022-12-23T19:48:38.178Z,13.98
2022-12-23T19:51:06.430Z,13.30
2022-12-23T19:53:33.731Z,11.82
2022-12-23T19:56:22.448Z,10.10
2022-12-23T19:58:49.870Z,12.23
2022-12-23T20:01:19.380Z,10.88
2022-12-23T20:03:47.426Z,9.93
2022-12-23T20:06:18.853Z,9.20
2022-12-23T20:08:46.726Z,10.27
2022-12-23T20:11:17.143Z,6.63
2022-12-23T20:13:44.668Z,11.07
2022-12-23T20:16:11.648Z,10.63
2022-12-23T20:18:38.965Z,8.88
2022-12-23T20:21:07.024Z,10.20
2022-12-23T20:23:34.105Z,9.23
2022-12-23T20:26:01.029Z,9.65
2022-12-23T20:28:28.131Z,11.30
2022-12-23T20:31:07.801Z,9.10
2022-12-23T20:33:54.010Z,8.57
2022-12-23T20:36:25.149Z,10.48
2022-12-23T20:38:52.571Z,8.60
2022-12-23T20:41:21.735Z,8.70
2022-12-23T20:44:23.468Z,8.23
2022-12-23T20:46:36.212Z,9.15
2022-12-23T20:49:03.120Z,9.05
2022-12-23T20:51:29.947Z,12.82
2022-12-23T20:53:59.903Z,12.68
2022-12-23T20:56:30.487Z,10.73
2022-12-23T20:58:59.258Z,10.10
2022-12-23T21:01:28.197Z,12.00
2022-12-23T21:03:57.910Z,14.10
2022-12-23T21:06:45.123Z,16.58
2022-12-23T21:09:30.577Z,15.75
2022-12-23T21:11:57.472Z,16.00
2022-12-23T21:14:24.266Z,15.02
2022-12-23T21:16:51.339Z,16.58
2022-12-23T21:19:20.601Z,15.75
2022-12-23T21:21:48.439Z,14.50
2022-12-23T21:24:15.986Z,12.60
2022-12-23T21:26:42.821Z,15.23
2022-12-23T21:29:10.834Z,15.85
2022-12-23T21:31:40.413Z,13.18
2022-12-23T21:34:07.849Z,14.00
2022-12-23T21:36:37.292Z,14.02
2022-12-23T21:39:05.637Z,13.00
2022-12-23T21:41:36.037Z,12.00
2022-12-23T21:44:03.709Z,11.65
2022-12-23T21:46:30.685Z,12.65
2022-12-23T21:48:58.823Z,11.70
2022-12-23T21:51:39.480Z,12.27
2022-12-23T21:54:07.845Z,12.32
2022-12-23T21:56:34.880Z,12.73
2022-12-23T21:59:20.428Z,13.02
2022-12-23T22:01:47.800Z,12.20
2022-12-23T22:04:14.604Z,11.93
2022-12-23T22:06:45.849Z,10.35
2022-12-23T22:09:18.103Z,10.93
2022-12-23T22:11:45.572Z,10.18
2022-12-23T22:14:16.165Z,11.05
2022-12-23T22:16:43.403Z,9.82
2022-12-23T22:19:11.640Z,8.73
2022-12-23T22:21:39.850Z,9.00
2022-12-23T22:24:07.318Z,10.10
2022-12-23T22:26:34.638Z,9.75
2022-12-23T22:29:04.300Z,9.50
2022-12-23T22:31:31.131Z,9.05
2022-12-23T22:34:19.378Z,9.50
2022-12-23T22:36:46.481Z,10.18
2022-12-23T22:39:20.041Z,10.15
2022-12-23T22:41:51.617Z,9.15
2022-12-23T22:44:18.771Z,8.18
2022-12-23T22:46:45.705Z,8.73
2022-12-23T22:49:13.939Z,8.15
2022-12-23T22:52:01.580Z,9.93
2022-12-23T22:54:46.939Z,6.65
2022-12-23T22:57:13.810Z,7.68
2022-12-23T22:59:40.634Z,7.43
2022-12-23T23:02:07.673Z,6.22
2022-12-23T23:04:34.704Z,6.85
2022-12-23T23:07:01.533Z,5.82
2022-12-23T23:09:28.431Z,6.60
2022-12-23T23:11:55.229Z,5.82
2022-12-23T23:14:22.134Z,4.53
2022-12-23T23:16:49.151Z,5.55
2022-12-23T23:19:16.575Z,5.07
2022-12-23T23:21:43.961Z,5.85
2022-12-23T23:24:12.093Z,5.25
2022-12-23T23:26:39.024Z,6.55
2022-12-23T23:29:05.790Z,5.55
2022-12-23T23:31:41.972Z,7.55
2022-12-23T23:34:10.372Z,5.82
2022-12-23T23:36:37.239Z,6.95
2022-12-23T23:39:04.264Z,5.97
2022-12-23T23:41:31.081Z,5.45
2022-12-23T23:44:16.731Z,6.85
2022-12-23T23:46:45.424Z,5.90
2022-12-23T23:49:12.686Z,6.45
2022-12-23T23:51:41.708Z,6.28
2022-12-23T23:54:09.085Z,6.75
2022-12-23T23:56:38.788Z,5.35
2022-12-23T23:59:07.425Z,6.57
